Time;durP1;ratioP1;P1;durP2;ratioP2;P2;SDS_P1;SDS_P2;PMS_P1;PMS_P2;Temp;Humidity;BMP_temperature;BMP_pressure;BME280_temperature;BME280_humidity;BME280_pressure;Samples;Min_cycle;Max_cycle;Signal;HPM_P1;HPM_P2
2022/09/06 00:02:08;;;;;;;1.90;0.90;;;;;;;24.69;39.70;101498.13;16125713;19;129026;-53
2022/09/06 00:07:30;;;;;;;3.05;0.98;;;;;;;24.68;39.54;101477.69;16122026;19;129290;-54
2022/09/06 00:12:53;;;;;;;1.67;0.95;;;;;;;24.67;39.67;101422.88;16128443;19;130149;-53
2022/09/06 00:18:14;;;;;;;5.70;1.05;;;;;;;24.66;39.55;101411.94;16128474;19;129076;-52
2022/09/06 00:23:36;;;;;;;1.88;0.93;;;;;;;24.64;39.70;101422.56;16122882;19;130562;-54
2022/09/06 00:28:58;;;;;;;2.47;0.80;;;;;;;24.64;39.92;101380.59;16119756;19;129794;-53
2022/09/06 00:34:20;;;;;;;2.75;1.00;;;;;;;24.62;39.67;101400.47;16128009;19;130770;-54
2022/09/06 00:39:41;;;;;;;1.33;1.00;;;;;;;24.61;39.89;101431.53;16123329;19;130303;-51
2022/09/06 00:45:06;;;;;;;3.60;1.27;;;;;;;24.61;39.65;101406.38;16125035;19;130832;-52
2022/09/06 00:50:28;;;;;;;2.75;1.00;;;;;;;24.60;39.57;101396.28;16126953;19;129574;-52
2022/09/06 00:55:50;;;;;;;2.58;1.20;;;;;;;24.58;39.86;101414.19;16124170;19;129934;-55
2022/09/06 01:01:12;;;;;;;3.65;1.10;;;;;;;24.57;39.51;101397.66;16131801;19;129100;-54
2022/09/06 01:07:01;;;;;;;1.80;0.82;;;;;;;24.57;39.89;101403.25;16136915;19;129811;-54
2022/09/06 01:12:47;;;;;;;1.83;1.05;;;;;;;24.54;40.10;101387.88;16138847;19;130216;-54
2022/09/06 01:18:21;;;;;;;2.10;1.00;;;;;;;24.54;39.90;101387.03;16141747;19;129796;-52
2022/09/06 01:23:58;;;;;;;1.23;0.80;;;;;;;24.53;39.80;101380.59;16139621;19;129556;-48
2022/09/06 01:29:43;;;;;;;1.42;0.93;;;;;;;24.52;39.67;101376.13;16138257;19;129605;-49
2022/09/06 01:35:32;;;;;;;3.42;1.13;;;;;;;24.51;39.81;101388.41;16137921;19;129647;-52
2022/09/06 01:40:54;;;;;;;1.55;0.77;;;;;;;24.51;39.78;101374.44;16135128;19;129250;-53
2022/09/06 01:46:51;;;;;;;1.60;1.15;;;;;;;24.48;39.87;101377.81;16137916;19;132127;-53
2022/09/06 01:52:22;;;;;;;2.05;0.90;;;;;;;24.49;39.88;101379.47;16127194;19;130211;-52
2022/09/06 01:58:07;;;;;;;4.20;1.08;;;;;;;24.49;39.73;101368.28;16127601;19;131249;-55
2022/09/06 02:03:36;;;;;;;1.55;1.00;;;;;;;24.48;40.00;101377.81;16126580;19;130036;-54
2022/09/06 02:09:06;;;;;;;2.10;0.70;;;;;;;24.48;39.49;101400.19;16129075;19;130116;-56
2022/09/06 02:14:35;;;;;;;1.05;0.80;;;;;;;24.47;40.02;101406.88;16129487;19;129412;-54
2022/09/06 02:20:11;;;;;;;2.90;0.90;;;;;;;24.47;39.62;101412.47;16127847;19;129289;-55
2022/09/06 02:25:40;;;;;;;1.50;0.88;;;;;;;24.46;39.97;101421.13;16132906;19;129504;-54
2022/09/06 02:31:09;;;;;;;4.95;1.10;;;;;;;24.46;39.79;101424.78;16138400;19;130023;-53
2022/09/06 02:36:31;;;;;;;1.10;0.88;;;;;;;24.44;39.75;101413.03;16141370;19;130674;-53
2022/09/06 02:41:53;;;;;;;1.45;0.95;;;;;;;24.41;39.87;101420.00;16135911;19;129015;-53
2022/09/06 02:47:15;;;;;;;2.08;0.93;;;;;;;24.41;39.96;101420.00;16133688;19;129893;-54
2022/09/06 02:52:37;;;;;;;1.55;1.00;;;;;;;24.41;39.84;101421.94;16129089;19;129827;-52
2022/09/06 02:57:59;;;;;;;1.52;0.95;;;;;;;24.40;39.64;101414.66;16130938;19;129134;-54
2022/09/06 03:03:21;;;;;;;0.95;0.80;;;;;;;24.40;39.99;101409.94;16125098;19;129770;-55
2022/09/06 03:08:43;;;;;;;1.55;0.90;;;;;;;24.38;40.26;101417.75;16120145;19;132214;-58
2022/09/06 03:14:05;;;;;;;1.27;0.85;;;;;;;24.38;39.86;101416.91;16129737;19;131214;-58
2022/09/06 03:19:30;;;;;;;1.10;0.88;;;;;;;24.38;39.92;101409.38;16133025;19;129872;-56
2022/09/06 03:24:51;;;;;;;1.63;1.00;;;;;;;24.37;39.81;101409.66;16130431;19;129919;-54
2022/09/06 03:30:13;;;;;;;2.17;0.80;;;;;;;24.37;39.82;101424.47;16130857;19;130284;-54
2022/09/06 03:35:35;;;;;;;1.15;0.95;;;;;;;24.35;39.88;101420.25;16129253;19;128813;-53
2022/09/06 03:40:57;;;;;;;1.02;0.80;;;;;;;24.35;39.86;101428.66;16131506;19;129652;-54
2022/09/06 03:46:19;;;;;;;3.08;0.90;;;;;;;24.35;40.08;101435.06;16131126;19;129758;-55
2022/09/06 03:51:41;;;;;;;0.82;0.80;;;;;;;24.34;39.83;101415.78;16128511;19;129735;-54
2022/09/06 03:57:03;;;;;;;1.95;0.93;;;;;;;24.34;40.01;101421.38;16128973;19;130218;-53
2022/09/06 04:02:24;;;;;;;2.28;1.00;;;;;;;24.33;40.01;101419.69;16122487;19;130519;-53
2022/09/06 04:07:46;;;;;;;1.55;0.85;;;;;;;24.32;39.96;101421.63;16125515;19;130127;-54
2022/09/06 04:13:08;;;;;;;0.82;0.82;;;;;;;24.31;39.85;101422.75;16125584;19;129948;-52
2022/09/06 04:18:30;;;;;;;1.40;1.02;;;;;;;24.31;40.00;101413.53;16124897;19;134331;-54
2022/09/06 04:23:52;;;;;;;1.27;1.00;;;;;;;24.29;40.16;101418.53;16127656;19;129343;-51
2022/09/06 04:29:14;;;;;;;0.93;0.85;;;;;;;24.30;39.74;101411.84;16121588;19;129736;-50
2022/09/06 04:34:36;;;;;;;0.85;0.82;;;;;;;24.27;39.97;101388.06;16128487;19;128895;-53
2022/09/06 04:39:58;;;;;;;1.50;0.90;;;;;;;24.26;39.98;101398.41;16140696;19;129068;-54
2022/09/06 04:45:20;;;;;;;1.00;0.80;;;;;;;24.26;39.86;101406.78;16142660;19;129352;-55
2022/09/06 04:50:42;;;;;;;1.50;1.10;;;;;;;24.24;40.27;101406.25;16141071;19;128902;-52
2022/09/06 04:56:04;;;;;;;1.20;0.90;;;;;;;24.24;40.26;101400.66;16138072;19;132223;-52
2022/09/06 05:01:25;;;;;;;2.08;0.90;;;;;;;24.23;40.04;101398.94;16137599;19;130505;-52
2022/09/06 05:06:48;;;;;;;1.25;0.80;;;;;;;24.25;39.99;101407.06;16137044;19;130770;-51
2022/09/06 05:12:09;;;;;;;1.45;1.00;;;;;;;24.22;39.93;101408.44;16139032;19;130373;-49
2022/09/06 05:17:31;;;;;;;18.40;1.58;;;;;;;24.23;39.93;101412.91;16139270;19;130544;-55
2022/09/06 05:22:53;;;;;;;4.65;1.00;;;;;;;24.24;39.62;101409.03;16141948;19;129762;-58
2022/09/06 05:28:16;;;;;;;6.88;1.50;;;;;;;24.24;40.16;101406.25;16137040;19;129882;-59
2022/09/06 05:33:38;;;;;;;3.92;1.83;;;;;;;24.24;40.32;101413.75;16144391;19;129959;-58
2022/09/06 05:39:00;;;;;;;5.25;2.20;;;;;;;24.21;40.30;101409.56;16145112;19;131750;-60
2022/09/06 05:44:21;;;;;;;5.03;2.42;;;;;;;24.23;40.23;101407.31;16143963;19;129385;-58
2022/09/06 05:49:45;;;;;;;6.07;2.40;;;;;;;24.22;40.38;101405.66;16139785;19;129623;-59
2022/09/06 05:55:07;;;;;;;10.32;2.70;;;;;;;24.23;40.47;101404.53;16139372;19;130413;-59
2022/09/06 06:00:29;;;;;;;7.28;2.92;;;;;;;24.21;40.51;101389.97;16140765;19;129620;-59
2022/09/06 06:05:51;;;;;;;6.80;3.30;;;;;;;24.21;40.63;101401.16;16134044;19;130008;-59
2022/09/06 06:11:13;;;;;;;5.78;3.13;;;;;;;24.21;40.65;101389.97;16152389;19;129818;-59
2022/09/06 06:16:35;;;;;;;5.35;3.20;;;;;;;24.21;40.75;101389.97;16159268;19;128796;-60
2022/09/06 06:21:57;;;;;;;8.40;4.20;;;;;;;24.19;41.20;101392.19;16151981;19;128936;-58
2022/09/06 06:27:19;;;;;;;5.63;3.70;;;;;;;24.18;41.21;101384.09;16164009;19;130359;-65
2022/09/06 06:32:41;;;;;;;7.63;3.50;;;;;;;24.18;41.32;101396.09;16174392;19;128992;-61
2022/09/06 06:38:02;;;;;;;5.32;2.60;;;;;;;24.22;41.42;101402.84;16193814;19;131799;-61
2022/09/06 06:43:25;;;;;;;5.45;2.20;;;;;;;24.29;40.94;101398.97;16167386;19;129798;-59
2022/09/06 06:48:47;;;;;;;7.97;1.98;;;;;;;24.37;41.17;101398.47;16138102;19;129123;-59
2022/09/06 06:54:15;;;;;;;5.13;1.80;;;;;;;24.46;41.25;101395.94;16142134;19;129630;-59
2022/09/06 06:59:38;;;;;;;5.72;1.73;;;;;;;24.53;40.98;101402.97;16139226;19;129062;-59
2022/09/06 07:05:00;;;;;;;4.07;1.40;;;;;;;24.60;40.89;101391.53;16143136;19;130353;-59
2022/09/06 07:10:23;;;;;;;6.28;1.77;;;;;;;24.65;40.87;101383.16;16136685;19;129441;-59
2022/09/06 07:16:09;;;;;;;5.07;1.25;;;;;;;24.71;40.55;101389.59;16142236;19;129546;-59
2022/09/06 07:21:31;;;;;;;2.75;1.30;;;;;;;24.73;40.36;101379.81;16141477;19;129081;-60
2022/09/06 07:26:56;;;;;;;3.17;1.13;;;;;;;24.77;40.46;101374.47;16139850;19;129221;-59
2022/09/06 07:32:38;;;;;;;4.78;1.60;;;;;;;24.80;40.64;101385.13;16135244;19;130200;-59
2022/09/06 07:38:00;;;;;;;5.47;1.77;;;;;;;24.83;40.42;101401.38;16139889;19;129612;-59
2022/09/06 07:43:22;;;;;;;2.05;1.40;;;;;;;24.85;40.43;101401.06;16138582;19;128897;-59
2022/09/06 07:48:45;;;;;;;3.30;1.30;;;;;;;24.86;40.17;101400.78;16136717;19;129674;-59
2022/09/06 07:54:07;;;;;;;3.20;1.20;;;;;;;24.91;40.46;101413.16;16139554;19;129185;-59
2022/09/06 07:59:49;;;;;;;2.38;1.20;;;;;;;24.92;40.15;101395.25;16136886;19;129454;-59
2022/09/06 08:05:10;;;;;;;3.83;1.65;;;;;;;24.94;40.28;101398.59;16139202;19;129223;-59
2022/09/06 08:10:52;;;;;;;2.47;1.27;;;;;;;24.94;40.24;101401.41;16142815;19;129279;-59
2022/09/06 08:16:15;;;;;;;2.97;1.48;;;;;;;24.95;40.38;101405.88;16154365;19;132569;-59
2022/09/06 08:21:38;;;;;;;1.98;1.20;;;;;;;24.95;40.32;101400.28;16154341;19;129240;-59
2022/09/06 08:27:00;;;;;;;2.83;1.35;;;;;;;24.95;40.19;101403.09;16149879;19;129249;-59
2022/09/06 08:32:21;;;;;;;3.85;1.30;;;;;;;24.96;40.12;101404.78;16153029;19;129640;-59
2022/09/06 08:37:43;;;;;;;2.92;1.63;;;;;;;24.95;40.47;101391.91;16153151;19;129422;-59
2022/09/06 08:43:16;;;;;;;1.58;1.25;;;;;;;24.95;40.42;101392.72;16147912;19;128923;-59
2022/09/06 08:48:38;;;;;;;2.72;1.35;;;;;;;24.94;40.59;101404.22;16149687;19;130802;-59
2022/09/06 08:54:10;;;;;;;3.05;1.63;;;;;;;24.93;40.22;101402.53;16150711;19;129021;-59
2022/09/06 08:59:38;;;;;;;3.03;1.77;;;;;;;24.93;40.62;101408.13;16149567;19;129426;-59
2022/09/06 09:05:04;;;;;;;3.42;1.50;;;;;;;24.91;40.50;101390.75;16148855;19;129262;-59
2022/09/06 09:10:29;;;;;;;5.03;1.38;;;;;;;24.88;40.94;101393.00;16144793;19;129191;-59
2022/09/06 09:15:51;;;;;;;4.73;1.80;;;;;;;24.87;40.81;101399.69;16149211;19;129251;-59
2022/09/06 09:21:17;;;;;;;4.63;1.40;;;;;;;24.87;40.43;101390.44;16146711;19;129528;-59
2022/09/06 09:26:50;;;;;;;4.28;1.70;;;;;;;24.85;40.70;101403.88;16145369;19;129420;-59
2022/09/06 09:32:38;;;;;;;3.75;1.30;;;;;;;24.84;40.73;101397.44;16147676;19;129159;-59
2022/09/06 09:38:03;;;;;;;3.10;1.42;;;;;;;24.82;40.64;101404.41;16146546;19;129204;-59
2022/09/06 09:43:41;;;;;;;3.95;1.40;;;;;;;24.81;40.79;101409.19;16144373;19;129042;-59
2022/09/06 09:49:08;;;;;;;2.67;1.48;;;;;;;24.79;40.82;101386.25;16144163;19;129255;-59
2022/09/06 09:54:32;;;;;;;1.83;1.10;;;;;;;24.77;40.88;101394.06;16145843;19;130086;-59
2022/09/06 09:59:56;;;;;;;3.53;1.30;;;;;;;24.77;41.15;101391.28;16143532;19;128927;-60
2022/09/06 10:05:19;;;;;;;4.03;1.73;;;;;;;24.78;41.48;101403.31;16146956;19;129064;-60
2022/09/06 10:10:46;;;;;;;3.72;1.70;;;;;;;24.80;41.66;101396.31;16139421;19;128838;-61
2022/09/06 10:16:08;;;;;;;4.68;1.50;;;;;;;24.82;41.60;101407.22;16144236;19;130281;-60
2022/09/06 10:21:30;;;;;;;3.08;1.58;;;;;;;24.82;41.58;101407.22;16144773;19;129158;-60
2022/09/06 10:26:57;;;;;;;3.00;1.70;;;;;;;24.84;41.86;101410.59;16141980;19;129175;-60
2022/09/06 10:32:37;;;;;;;3.05;1.70;;;;;;;24.84;41.88;101407.78;16142057;19;130046;-60
2022/09/06 10:38:20;;;;;;;4.57;1.60;;;;;;;24.85;42.15;101410.31;16142749;19;129846;-60
2022/09/06 10:44:10;;;;;;;3.47;2.00;;;;;;;24.85;42.16;101415.94;16140993;19;129417;-60
2022/09/06 10:49:34;;;;;;;8.73;1.90;;;;;;;24.84;42.10;101414.25;16138577;19;129079;-60
2022/09/06 10:55:03;;;;;;;4.18;1.95;;;;;;;24.84;42.38;101419.84;16140847;19;129915;-60
2022/09/06 11:00:25;;;;;;;5.55;2.03;;;;;;;24.85;42.49;101427.13;16140830;19;129371;-60
2022/09/06 11:05:53;;;;;;;3.08;1.77;;;;;;;24.86;41.96;101416.75;16142846;19;128855;-60
2022/09/06 11:11:21;;;;;;;3.65;2.15;;;;;;;24.85;42.21;101412.28;16134870;19;130282;-60
2022/09/06 11:17:01;;;;;;;3.40;1.80;;;;;;;24.85;42.35;101407.53;16141119;19;130106;-60
2022/09/06 11:22:32;;;;;;;4.57;1.60;;;;;;;24.85;41.90;101396.34;16140290;19;129092;-60
2022/09/06 11:27:58;;;;;;;3.63;1.75;;;;;;;24.85;42.34;101407.53;16137408;19;129167;-60
2022/09/06 11:33:38;;;;;;;3.85;1.77;;;;;;;24.86;41.94;101411.16;16137814;19;129446;-60
2022/09/06 11:39:03;;;;;;;3.42;1.73;;;;;;;24.86;41.83;101409.19;16139007;19;129728;-60
2022/09/06 11:45:14;;;;;;;5.15;1.70;;;;;;;24.90;41.85;101414.25;16135317;19;130020;-60
2022/09/06 11:50:58;;;;;;;9.90;3.10;;;;;;;24.90;42.05;101412.31;16134491;19;130276;-60
2022/09/06 11:56:45;;;;;;;53.05;28.92;;;;;;;24.91;42.25;101413.16;16132454;19;129916;-60
2022/09/06 12:02:30;;;;;;;41.42;23.15;;;;;;;24.91;41.88;101400.00;16128759;19;129246;-60
2022/09/06 12:08:20;;;;;;;39.53;21.60;;;;;;;24.93;42.27;101392.16;16123750;19;129417;-60
2022/09/06 12:13:45;;;;;;;37.28;18.00;;;;;;;24.93;41.84;101391.31;16126619;19;129421;-60
2022/09/06 12:19:07;;;;;;;30.48;16.63;;;;;;;24.93;41.90;101389.34;16128298;19;129813;-60
2022/09/06 12:24:34;;;;;;;27.00;13.10;;;;;;;24.94;41.66;101396.63;16127860;19;129475;-60
2022/09/06 12:29:59;;;;;;;24.02;10.38;;;;;;;24.95;41.83;101386.28;16112011;19;130238;-60
2022/09/06 12:35:24;;;;;;;20.10;10.00;;;;;;;24.95;41.51;101381.53;16123520;19;129614;-60
2022/09/06 12:41:07;;;;;;;15.53;7.67;;;;;;;24.96;41.36;101360.00;16133255;19;130378;-60
2022/09/06 12:46:30;;;;;;;9.82;6.05;;;;;;;24.99;41.48;101359.41;16128713;19;129113;-60
2022/09/06 12:52:05;;;;;;;8.88;5.32;;;;;;;24.99;40.91;101359.41;16127513;19;129475;-60
2022/09/06 12:57:27;;;;;;;7.00;4.83;;;;;;;24.98;40.74;101352.97;16141652;19;130824;-60
2022/09/06 13:03:11;;;;;;;8.40;3.80;;;;;;;25.00;40.81;101349.91;16148367;19;129380;-60
2022/09/06 13:08:54;;;;;;;6.88;3.78;;;;;;;25.00;40.74;101353.56;16145667;19;129731;-60
2022/09/06 13:14:28;;;;;;;10.77;4.00;;;;;;;25.03;40.32;101343.75;16147614;19;129635;-60
2022/09/06 13:19:50;;;;;;;6.97;3.20;;;;;;;25.00;40.51;101330.31;16144776;19;130439;-59
2022/09/06 13:25:23;;;;;;;6.68;2.90;;;;;;;25.03;40.65;101319.41;16143295;19;129718;-60
2022/09/06 13:30:45;;;;;;;5.35;2.70;;;;;;;25.03;40.27;101310.16;16137832;19;129346;-59
2022/09/06 13:36:10;;;;;;;;;;;;;;;25.01;40.35;101306.78;16139511;19;131039;-60
2022/09/06 13:41:36;;;;;;;4.85;2.03;;;;;;;25.07;40.12;101310.44;16139299;19;130345;-58
2022/09/06 13:46:58;;;;;;;9.02;1.95;;;;;;;25.07;39.81;101313.22;16139461;19;128992;-59
2022/09/06 13:52:21;;;;;;;11.10;2.10;;;;;;;25.09;39.94;101302.59;16140765;19;129286;-58
2022/09/06 13:57:43;;;;;;;5.65;1.85;;;;;;;25.07;40.17;101304.81;16145530;19;129133;-58
2022/09/06 14:03:05;;;;;;;6.60;2.40;;;;;;;25.03;40.00;101294.22;16142980;19;129872;-57
2022/09/06 14:08:27;;;;;;;2.60;1.52;;;;;;;25.03;40.01;101293.34;16138844;19;129904;-58
2022/09/06 14:14:09;;;;;;;7.70;2.05;;;;;;;25.05;39.87;101291.13;16144982;19;129285;-59
2022/09/06 14:19:31;;;;;;;2.95;1.90;;;;;;;25.03;39.93;101293.34;16143856;19;129504;-59
2022/09/06 14:24:54;;;;;;;3.38;1.60;;;;;;;25.01;39.82;101284.41;16143940;19;129475;-59
2022/09/06 14:30:15;;;;;;;2.78;1.58;;;;;;;24.99;39.72;101287.50;16140589;19;129785;-59
2022/09/06 14:35:40;;;;;;;2.55;1.42;;;;;;;24.99;39.83;101278.25;16143211;19;129488;-59
2022/09/06 14:41:03;;;;;;;6.03;1.95;;;;;;;24.96;39.94;101260.06;16136843;19;129056;-59
2022/09/06 14:46:27;;;;;;;3.88;1.33;;;;;;;24.97;40.04;101266.50;16138407;19;129302;-59
2022/09/06 14:51:51;;;;;;;4.15;1.60;;;;;;;24.96;39.93;101267.63;16135830;19;129030;-59
2022/09/06 14:57:13;;;;;;;3.47;1.50;;;;;;;24.95;39.86;101257.56;16141620;19;128930;-59
2022/09/06 15:02:36;;;;;;;3.03;1.75;;;;;;;24.93;40.04;101255.00;16141033;19;129957;-59
2022/09/06 15:07:58;;;;;;;3.42;1.60;;;;;;;24.92;39.72;101244.97;16140381;19;132030;-58
2022/09/06 15:13:20;;;;;;;5.25;1.50;;;;;;;24.91;39.81;101250.84;16142980;19;129884;-58
2022/09/06 15:18:42;;;;;;;2.15;1.30;;;;;;;24.93;39.13;101245.78;16133991;19;129410;-57
2022/09/06 15:24:05;;;;;;;3.28;1.00;;;;;;;24.96;38.66;101248.88;16137542;19;129853;-60
2022/09/06 15:29:32;;;;;;;3.33;1.40;;;;;;;24.96;38.62;101242.44;16136081;19;129386;-61
2022/09/06 15:34:54;;;;;;;2.63;1.13;;;;;;;24.97;38.75;101238.53;16140151;19;129093;-59
2022/09/06 15:40:15;;;;;;;5.88;1.75;;;;;;;24.97;38.58;101232.94;16133667;19;129068;-60
2022/09/06 15:45:49;;;;;;;3.58;1.38;;;;;;;25.01;39.10;101234.00;16135871;19;129456;-58
2022/09/06 15:51:13;;;;;;;7.05;1.60;;;;;;;25.02;39.38;101233.75;16134613;19;129907;-60
2022/09/06 15:56:35;;;;;;;5.53;1.50;;;;;;;25.01;39.64;101231.22;16133921;19;129793;-60
2022/09/06 16:01:57;;;;;;;4.63;1.38;;;;;;;25.02;39.84;101225.34;16133628;19;129561;-60
2022/09/06 16:07:19;;;;;;;5.72;1.45;;;;;;;25.02;40.15;101210.50;16133513;19;129932;-60
2022/09/06 16:12:40;;;;;;;5.43;1.40;;;;;;;25.03;40.43;101201.84;16130155;19;129415;-60
2022/09/06 16:18:03;;;;;;;4.65;1.30;;;;;;;25.04;40.65;101194.28;16131400;19;129943;-60
2022/09/06 16:23:25;;;;;;;3.70;1.38;;;;;;;25.05;40.91;101206.31;16136437;19;129769;-60
2022/09/06 16:28:49;;;;;;;6.30;1.50;;;;;;;25.06;40.94;101199.56;16134502;19;128916;-60
2022/09/06 16:34:12;;;;;;;4.05;1.30;;;;;;;25.06;40.94;101193.97;16148170;19;129762;-60
2022/09/06 16:39:34;;;;;;;11.15;1.63;;;;;;;25.04;41.35;101188.66;16148367;19;129066;-61
2022/09/06 16:44:57;;;;;;;6.10;1.65;;;;;;;25.04;40.99;101177.47;16143617;19;129296;-60
2022/09/06 16:50:19;;;;;;;15.93;1.80;;;;;;;25.03;41.18;101173.00;16145156;19;129542;-61
2022/09/06 16:55:41;;;;;;;9.63;1.60;;;;;;;25.01;40.71;101172.44;16148412;19;131140;-60
2022/09/06 17:01:03;;;;;;;15.35;1.83;;;;;;;24.97;40.89;101177.78;16149854;19;133696;-60
2022/09/06 17:06:24;;;;;;;6.85;1.75;;;;;;;24.97;40.83;101166.56;16148150;19;129636;-60
2022/09/06 17:11:49;;;;;;;6.32;1.65;;;;;;;24.98;40.85;101156.25;16142965;19;128936;-60
2022/09/06 17:17:13;;;;;;;9.63;1.58;;;;;;;24.98;40.71;101161.84;16142981;19;129862;-60
2022/09/06 17:22:35;;;;;;;11.40;1.80;;;;;;;24.98;40.89;101151.47;16147048;19;129156;-60
2022/09/06 17:27:57;;;;;;;6.07;1.92;;;;;;;24.98;40.72;101147.84;16147535;19;129399;-60
2022/09/06 17:33:20;;;;;;;9.10;1.50;;;;;;;24.98;41.34;101139.44;16140196;19;132393;-60
2022/09/06 17:38:43;;;;;;;7.60;1.80;;;;;;;24.98;41.09;101134.66;16146659;19;129362;-60
2022/09/06 17:44:06;;;;;;;8.50;1.60;;;;;;;24.97;40.72;101137.75;16142196;19;129442;-60
2022/09/06 17:49:29;;;;;;;5.40;1.75;;;;;;;24.87;40.66;101133.81;16143254;19;129457;-61
2022/09/06 17:54:51;;;;;;;4.13;1.60;;;;;;;24.81;40.91;101123.78;16141180;19;130009;-60
2022/09/06 18:00:13;;;;;;;9.93;1.92;;;;;;;24.77;40.75;101121.84;16146440;19;131720;-59
2022/09/06 18:05:38;;;;;;;26.85;2.47;;;;;;;24.75;41.24;101133.28;16143503;19;129961;-61
2022/09/06 18:11:07;;;;;;;;;;;;;;;24.74;41.18;101128.81;16142879;19;129899;-61
2022/09/06 18:16:31;;;;;;;14.85;2.10;;;;;;;24.80;41.42;101126.88;16142089;19;130083;-61
2022/09/06 18:21:54;;;;;;;9.15;1.65;;;;;;;24.79;41.91;101111.22;16142347;19;129457;-61
2022/09/06 18:27:15;;;;;;;8.07;2.00;;;;;;;24.80;41.39;101112.88;16139084;19;129737;-61
2022/09/06 18:32:39;;;;;;;10.70;2.28;;;;;;;24.77;41.73;101111.47;16138898;19;129660;-61
2022/09/06 18:38:01;;;;;;;6.97;2.28;;;;;;;24.72;41.62;101105.91;16196733;19;128962;-61
2022/09/06 18:43:31;;;;;;;10.32;2.40;;;;;;;24.67;41.60;101100.31;16221563;19;128499;-63
2022/09/06 18:48:52;;;;;;;4.30;2.25;;;;;;;24.64;41.72;101106.47;16222816;19;129687;-62
2022/09/06 18:54:15;;;;;;;10.10;2.55;;;;;;;24.56;42.06;101089.16;16210984;19;128352;-62
2022/09/06 18:59:37;;;;;;;10.02;2.30;;;;;;;24.51;41.56;101086.34;16209810;19;128420;-61
2022/09/06 19:04:58;;;;;;;11.18;2.58;;;;;;;24.50;41.82;101087.47;16214714;19;128996;-58
2022/09/06 19:10:20;;;;;;;9.13;2.58;;;;;;;24.46;42.16;101100.38;16204729;19;129437;-57
2022/09/06 19:15:43;;;;;;;8.02;2.42;;;;;;;24.47;42.10;101087.22;16186147;19;129426;-60
2022/09/06 19:21:11;;;;;;;5.97;2.33;;;;;;;24.50;41.83;101073.50;16194026;19;128942;-60
2022/09/06 19:26:36;;;;;;;6.80;2.78;;;;;;;24.49;41.95;101071.84;16160323;19;129135;-62
2022/09/06 19:31:58;;;;;;;;;;;;;;;24.48;42.14;101081.34;16175389;19;128872;-60
2022/09/06 19:37:22;;;;;;;4.45;2.70;;;;;;;24.51;42.01;101058.38;16168339;19;130141;-59
2022/09/06 19:42:44;;;;;;;7.77;2.60;;;;;;;24.51;42.17;101060.38;16149356;19;130661;-59
2022/09/06 19:48:06;;;;;;;6.50;3.22;;;;;;;24.54;42.13;101062.59;16135414;19;130251;-59
2022/09/06 19:53:29;;;;;;;8.98;2.92;;;;;;;24.55;41.97;101053.09;16130698;19;129704;-60
2022/09/06 19:58:56;;;;;;;14.75;3.83;;;;;;;24.58;42.17;101046.91;16135371;19;129757;-61
2022/09/06 20:04:18;;;;;;;8.15;3.42;;;;;;;24.54;42.12;101048.63;16137206;19;128935;-61
2022/09/06 20:09:41;;;;;;;9.55;3.03;;;;;;;24.58;41.69;101035.72;16135006;19;128958;-61
2022/09/06 20:15:03;;;;;;;8.43;3.03;;;;;;;24.63;42.01;101020.88;16135480;19;129865;-59
2022/09/06 20:20:24;;;;;;;10.00;3.10;;;;;;;24.65;41.96;101004.66;16134607;19;129304;-58
2022/09/06 20:25:55;;;;;;;20.33;3.30;;;;;;;24.67;42.44;100999.59;16137177;19;129589;-59
2022/09/06 20:31:19;;;;;;;12.57;2.80;;;;;;;24.68;42.25;100998.50;16134306;19;130303;-69
2022/09/06 20:36:41;;;;;;;12.48;3.15;;;;;;;24.68;42.33;100996.50;16136183;19;129523;-59
2022/09/06 20:42:03;;;;;;;16.00;2.80;;;;;;;24.70;42.37;101007.44;16135071;19;129067;-59
2022/09/06 20:47:27;;;;;;;9.68;2.80;;;;;;;24.70;42.49;100999.88;16131388;19;129426;-59
2022/09/06 20:52:49;;;;;;;14.40;2.80;;;;;;;24.69;42.92;100975.81;16131812;19;129103;-59
2022/09/06 20:58:11;;;;;;;7.65;2.30;;;;;;;24.69;42.92;100959.03;16134119;19;130190;-60
2022/09/06 21:03:36;;;;;;;13.32;2.63;;;;;;;24.69;43.09;100956.22;16133408;19;129275;-59
2022/09/06 21:08:59;;;;;;;10.05;2.75;;;;;;;24.70;43.20;100959.88;16130879;19;129521;-60
2022/09/06 21:14:21;;;;;;;7.63;2.60;;;;;;;24.68;43.37;100978.91;16126647;19;129436;-59
2022/09/06 21:19:43;;;;;;;8.77;2.28;;;;;;;24.69;43.45;101005.75;16145305;19;128892;-59
2022/09/06 21:25:06;;;;;;;8.65;2.60;;;;;;;24.68;43.73;101026.47;16147043;19;128877;-59
2022/09/06 21:30:27;;;;;;;6.93;2.83;;;;;;;24.67;43.47;101041.56;16145840;19;131566;-59
2022/09/06 21:35:49;;;;;;;5.63;2.53;;;;;;;24.66;43.78;101051.94;16145082;19;129427;-59
2022/09/06 21:41:12;;;;;;;8.05;2.28;;;;;;;24.67;43.84;101100.31;16145947;19;129595;-59
2022/09/06 21:46:37;;;;;;;5.55;2.17;;;;;;;24.66;44.05;101185.34;16140443;19;129648;-59
2022/09/06 21:51:59;;;;;;;8.15;2.50;;;;;;;24.65;44.00;101223.69;16142184;19;130766;-59
2022/09/06 21:57:20;;;;;;;4.97;2.40;;;;;;;24.64;44.09;101207.16;16142669;19;132334;-59
2022/09/06 22:02:42;;;;;;;5.07;2.45;;;;;;;24.64;44.12;101224.81;16144527;19;129059;-59
2022/09/06 22:08:04;;;;;;;6.40;1.92;;;;;;;24.63;44.28;101216.69;16147391;19;129426;-59
2022/09/06 22:13:25;;;;;;;5.00;2.10;;;;;;;24.61;44.07;101225.38;16142382;19;129913;-59
2022/09/06 22:18:48;;;;;;;5.82;2.10;;;;;;;24.60;44.13;101225.66;16145927;19;129376;-60
2022/09/06 22:24:11;;;;;;;6.57;2.35;;;;;;;24.58;44.30;101234.31;16143137;19;129473;-59
2022/09/06 22:29:33;;;;;;;8.25;1.90;;;;;;;24.57;43.94;101250.25;16143866;19;129937;-59
2022/09/06 22:34:54;;;;;;;3.97;1.90;;;;;;;24.56;43.78;101256.13;16141614;19;129904;-59
2022/09/06 22:40:16;;;;;;;3.22;1.77;;;;;;;24.55;44.13;101277.66;16140629;19;129357;-59
2022/09/06 22:45:38;;;;;;;4.38;2.22;;;;;;;24.54;44.08;101239.63;16136397;19;130129;-60
2022/09/06 22:51:01;;;;;;;6.82;2.10;;;;;;;24.53;44.20;101198.78;16139512;19;129727;-59
2022/09/06 22:56:23;;;;;;;4.88;2.05;;;;;;;24.52;43.90;101193.50;16139764;19;129189;-59
2022/09/06 23:01:45;;;;;;;3.95;1.90;;;;;;;24.50;44.09;101185.34;16139649;19;128992;-59
2022/09/06 23:07:06;;;;;;;3.88;1.77;;;;;;;24.50;43.88;101168.56;16135246;19;132431;-59
2022/09/06 23:12:28;;;;;;;3.35;1.73;;;;;;;24.48;43.94;101170.84;16135247;19;129509;-59
2022/09/06 23:17:50;;;;;;;3.00;1.70;;;;;;;24.49;43.57;101155.75;16141744;19;129611;-59
2022/09/06 23:23:12;;;;;;;3.50;1.42;;;;;;;24.49;43.68;101140.91;16139063;19;129410;-59
2022/09/06 23:28:35;;;;;;;3.42;1.67;;;;;;;24.47;43.91;101124.41;16134421;19;129703;-59
2022/09/06 23:33:59;;;;;;;2.78;1.40;;;;;;;24.46;43.84;101125.53;16131894;19;129461;-60
2022/09/06 23:39:20;;;;;;;3.30;1.13;;;;;;;24.46;43.71;101147.06;16136570;19;131211;-61
2022/09/06 23:44:42;;;;;;;2.78;1.33;;;;;;;24.45;43.68;101160.22;16133972;19;129340;-60
2022/09/06 23:50:06;;;;;;;2.70;1.17;;;;;;;24.45;43.79;101182.59;16136814;19;129425;-59
2022/09/06 23:55:27;;;;;;;1.35;0.93;;;;;;;24.43;43.55;101177.25;16136909;19;131675;-60
